Terminal Aerodrome Forecast
Issued by NWS

Home | Current Version | Previous Version | Text Only | Print | Product List | Glossary On
Versions: 1 2 3 4 5 6 7 8 9 10 11 12 13 14 15 16 17 18 19 20 21 22 23 24 25 26 27 28 29 30 31
000
FTUS45 KGJT 302341
TAFEGE
TAF
KEGE 302341Z 3100/3124 24008KT P6SM VCTS SCT100CB BKN150
      TEMPO 3100/3102 VRB20G30KT -TSRA SCT070 BKN100CB
     FM310200 VRB05KT P6SM SCT110 BKN150
     FM311900 24020G32KT P6SM VCTS SCT100CB BKN150
      AMD LTD TO CLD VIS AND WIND 3101/3113=

USA.gov is the U.S. government's official web portal to all federal, state and local government web resources and services.